sensor_id;sensor_type;location;lat;lon;timestamp;P1;durP1;ratioP1;P2;durP2;ratioP2
26435;SDS011;15351;52.408;16.826;2022-12-07T00:01:41;11.08;;;8.03;;
26435;SDS011;15351;52.408;16.826;2022-12-07T00:04:13;11.60;;;8.10;;
26435;SDS011;15351;52.408;16.826;2022-12-07T00:06:41;11.47;;;7.90;;
26435;SDS011;15351;52.408;16.826;2022-12-07T00:09:14;11.75;;;8.43;;
26435;SDS011;15351;52.408;16.826;2022-12-07T00:11:42;12.47;;;8.65;;
26435;SDS011;15351;52.408;16.826;2022-12-07T00:14:11;11.03;;;7.87;;
26435;SDS011;15351;52.408;16.826;2022-12-07T00:16:41;11.73;;;8.70;;
26435;SDS011;15351;52.408;16.826;2022-12-07T00:19:10;12.18;;;9.40;;
26435;SDS011;15351;52.408;16.826;2022-12-07T00:21:38;13.00;;;9.25;;
26435;SDS011;15351;52.408;16.826;2022-12-07T00:24:05;13.53;;;9.53;;
26435;SDS011;15351;52.408;16.826;2022-12-07T00:26:34;12.63;;;9.08;;
26435;SDS011;15351;52.408;16.826;2022-12-07T00:29:05;12.58;;;9.40;;
26435;SDS011;15351;52.408;16.826;2022-12-07T00:31:37;11.88;;;8.95;;
26435;SDS011;15351;52.408;16.826;2022-12-07T00:34:05;12.37;;;9.43;;
26435;SDS011;15351;52.408;16.826;2022-12-07T00:36:34;12.07;;;9.65;;
26435;SDS011;15351;52.408;16.826;2022-12-07T00:39:03;13.55;;;9.75;;
26435;SDS011;15351;52.408;16.826;2022-12-07T00:41:30;13.50;;;9.57;;
26435;SDS011;15351;52.408;16.826;2022-12-07T00:43:58;13.20;;;9.50;;
26435;SDS011;15351;52.408;16.826;2022-12-07T00:46:25;11.95;;;9.05;;
26435;SDS011;15351;52.408;16.826;2022-12-07T00:48:52;11.38;;;9.08;;
26435;SDS011;15351;52.408;16.826;2022-12-07T00:51:22;11.78;;;9.55;;
26435;SDS011;15351;52.408;16.826;2022-12-07T00:53:50;13.65;;;10.10;;
26435;SDS011;15351;52.408;16.826;2022-12-07T00:56:20;14.87;;;10.35;;
26435;SDS011;15351;52.408;16.826;2022-12-07T00:58:54;14.03;;;10.30;;
26435;SDS011;15351;52.408;16.826;2022-12-07T01:01:27;14.18;;;9.90;;
26435;SDS011;15351;52.408;16.826;2022-12-07T01:03:56;13.90;;;9.98;;
26435;SDS011;15351;52.408;16.826;2022-12-07T01:06:23;13.38;;;10.80;;
26435;SDS011;15351;52.408;16.826;2022-12-07T01:08:51;13.15;;;10.65;;
26435;SDS011;15351;52.408;16.826;2022-12-07T01:11:20;14.97;;;11.10;;
26435;SDS011;15351;52.408;16.826;2022-12-07T01:13:50;13.85;;;10.72;;
26435;SDS011;15351;52.408;16.826;2022-12-07T01:16:21;14.58;;;11.25;;
26435;SDS011;15351;52.408;16.826;2022-12-07T01:18:50;14.00;;;10.58;;
26435;SDS011;15351;52.408;16.826;2022-12-07T01:21:21;13.88;;;10.20;;
26435;SDS011;15351;52.408;16.826;2022-12-07T01:23:50;15.48;;;11.80;;
26435;SDS011;15351;52.408;16.826;2022-12-07T01:26:20;15.03;;;11.03;;
26435;SDS011;15351;52.408;16.826;2022-12-07T01:28:50;14.45;;;10.95;;
26435;SDS011;15351;52.408;16.826;2022-12-07T01:31:19;14.83;;;10.72;;
26435;SDS011;15351;52.408;16.826;2022-12-07T01:33:48;13.57;;;10.00;;
26435;SDS011;15351;52.408;16.826;2022-12-07T01:36:22;13.93;;;10.27;;
26435;SDS011;15351;52.408;16.826;2022-12-07T01:38:57;13.30;;;11.12;;
26435;SDS011;15351;52.408;16.826;2022-12-07T01:41:29;16.35;;;11.30;;
26435;SDS011;15351;52.408;16.826;2022-12-07T01:46:58;14.63;;;10.20;;
26435;SDS011;15351;52.408;16.826;2022-12-07T01:49:46;13.62;;;10.03;;
26435;SDS011;15351;52.408;16.826;2022-12-07T01:52:23;13.53;;;10.78;;
26435;SDS011;15351;52.408;16.826;2022-12-07T01:54:54;14.58;;;11.18;;
26435;SDS011;15351;52.408;16.826;2022-12-07T01:57:26;16.02;;;10.98;;
26435;SDS011;15351;52.408;16.826;2022-12-07T01:59:53;13.62;;;9.78;;
26435;SDS011;15351;52.408;16.826;2022-12-07T02:02:23;12.80;;;9.58;;
26435;SDS011;15351;52.408;16.826;2022-12-07T02:04:57;12.33;;;9.68;;
26435;SDS011;15351;52.408;16.826;2022-12-07T02:07:27;12.18;;;10.13;;
26435;SDS011;15351;52.408;16.826;2022-12-07T02:09:56;12.00;;;9.43;;
26435;SDS011;15351;52.408;16.826;2022-12-07T02:12:22;10.93;;;8.73;;
26435;SDS011;15351;52.408;16.826;2022-12-07T02:14:50;13.48;;;9.45;;
26435;SDS011;15351;52.408;16.826;2022-12-07T02:23:04;13.13;;;8.83;;
26435;SDS011;15351;52.408;16.826;2022-12-07T02:25:53;11.53;;;8.93;;
26435;SDS011;15351;52.408;16.826;2022-12-07T02:31:54;10.00;;;8.10;;
26435;SDS011;15351;52.408;16.826;2022-12-07T02:37:27;10.90;;;8.80;;
26435;SDS011;15351;52.408;16.826;2022-12-07T02:42:58;10.63;;;8.63;;
26435;SDS011;15351;52.408;16.826;2022-12-07T02:45:41;10.38;;;8.40;;
26435;SDS011;15351;52.408;16.826;2022-12-07T02:48:10;9.60;;;8.47;;
26435;SDS011;15351;52.408;16.826;2022-12-07T02:50:44;10.15;;;8.93;;
26435;SDS011;15351;52.408;16.826;2022-12-07T02:53:29;10.82;;;8.98;;
26435;SDS011;15351;52.408;16.826;2022-12-07T03:07:05;10.58;;;8.80;;
26435;SDS011;15351;52.408;16.826;2022-12-07T03:09:37;11.03;;;8.20;;
26435;SDS011;15351;52.408;16.826;2022-12-07T03:12:14;11.88;;;8.50;;
26435;SDS011;15351;52.408;16.826;2022-12-07T03:14:46;10.93;;;8.40;;
26435;SDS011;15351;52.408;16.826;2022-12-07T03:17:17;11.38;;;8.43;;
26435;SDS011;15351;52.408;16.826;2022-12-07T03:19:51;9.18;;;8.08;;
26435;SDS011;15351;52.408;16.826;2022-12-07T03:22:23;9.75;;;8.50;;
26435;SDS011;15351;52.408;16.826;2022-12-07T03:24:55;9.87;;;8.17;;
26435;SDS011;15351;52.408;16.826;2022-12-07T03:27:37;9.98;;;7.35;;
26435;SDS011;15351;52.408;16.826;2022-12-07T03:30:15;8.65;;;7.40;;
26435;SDS011;15351;52.408;16.826;2022-12-07T03:32:50;8.95;;;7.10;;
26435;SDS011;15351;52.408;16.826;2022-12-07T03:35:31;8.20;;;7.20;;
26435;SDS011;15351;52.408;16.826;2022-12-07T03:43:27;9.53;;;7.60;;
26435;SDS011;15351;52.408;16.826;2022-12-07T03:49:25;8.10;;;7.30;;
26435;SDS011;15351;52.408;16.826;2022-12-07T03:52:28;8.93;;;8.03;;
26435;SDS011;15351;52.408;16.826;2022-12-07T03:55:15;8.70;;;7.65;;
26435;SDS011;15351;52.408;16.826;2022-12-07T03:57:55;8.85;;;7.72;;
26435;SDS011;15351;52.408;16.826;2022-12-07T04:00:26;9.60;;;7.85;;
26435;SDS011;15351;52.408;16.826;2022-12-07T04:02:53;8.60;;;7.70;;
26435;SDS011;15351;52.408;16.826;2022-12-07T04:05:22;10.08;;;8.55;;
26435;SDS011;15351;52.408;16.826;2022-12-07T04:07:49;9.70;;;8.07;;
26435;SDS011;15351;52.408;16.826;2022-12-07T04:10:17;10.95;;;8.80;;
26435;SDS011;15351;52.408;16.826;2022-12-07T04:12:44;11.03;;;8.78;;
26435;SDS011;15351;52.408;16.826;2022-12-07T04:15:10;11.43;;;9.07;;
26435;SDS011;15351;52.408;16.826;2022-12-07T04:17:38;9.78;;;8.53;;
26435;SDS011;15351;52.408;16.826;2022-12-07T04:20:06;11.40;;;9.83;;
26435;SDS011;15351;52.408;16.826;2022-12-07T04:22:36;11.53;;;9.70;;
26435;SDS011;15351;52.408;16.826;2022-12-07T04:25:05;11.70;;;9.73;;
26435;SDS011;15351;52.408;16.826;2022-12-07T04:27:32;11.73;;;9.78;;
26435;SDS011;15351;52.408;16.826;2022-12-07T04:29:58;12.17;;;9.70;;
26435;SDS011;15351;52.408;16.826;2022-12-07T04:32:25;10.28;;;9.25;;
26435;SDS011;15351;52.408;16.826;2022-12-07T04:34:53;11.13;;;9.93;;
26435;SDS011;15351;52.408;16.826;2022-12-07T04:37:19;13.68;;;10.23;;
26435;SDS011;15351;52.408;16.826;2022-12-07T04:39:47;12.45;;;9.90;;
26435;SDS011;15351;52.408;16.826;2022-12-07T04:42:16;11.83;;;9.63;;
26435;SDS011;15351;52.408;16.826;2022-12-07T04:44:42;11.00;;;9.30;;
26435;SDS011;15351;52.408;16.826;2022-12-07T04:47:09;12.23;;;10.00;;
26435;SDS011;15351;52.408;16.826;2022-12-07T04:49:35;11.97;;;10.68;;
26435;SDS011;15351;52.408;16.826;2022-12-07T04:52:03;12.88;;;11.28;;
26435;SDS011;15351;52.408;16.826;2022-12-07T04:54:30;12.75;;;10.68;;
26435;SDS011;15351;52.408;16.826;2022-12-07T04:56:58;13.68;;;11.03;;
26435;SDS011;15351;52.408;16.826;2022-12-07T04:59:25;13.10;;;10.60;;
26435;SDS011;15351;52.408;16.826;2022-12-07T05:01:51;13.10;;;11.27;;
26435;SDS011;15351;52.408;16.826;2022-12-07T05:04:18;14.68;;;11.78;;
26435;SDS011;15351;52.408;16.826;2022-12-07T05:06:46;14.98;;;12.47;;
26435;SDS011;15351;52.408;16.826;2022-12-07T05:09:12;14.78;;;11.33;;
26435;SDS011;15351;52.408;16.826;2022-12-07T05:11:38;13.53;;;11.22;;
26435;SDS011;15351;52.408;16.826;2022-12-07T05:14:11;12.75;;;10.60;;
26435;SDS011;15351;52.408;16.826;2022-12-07T05:16:44;13.55;;;10.10;;
26435;SDS011;15351;52.408;16.826;2022-12-07T05:19:13;11.78;;;10.58;;
26435;SDS011;15351;52.408;16.826;2022-12-07T05:21:41;12.25;;;10.95;;
26435;SDS011;15351;52.408;16.826;2022-12-07T05:24:08;11.90;;;10.15;;
26435;SDS011;15351;52.408;16.826;2022-12-07T05:26:38;12.10;;;9.90;;
26435;SDS011;15351;52.408;16.826;2022-12-07T05:29:05;10.68;;;9.03;;
26435;SDS011;15351;52.408;16.826;2022-12-07T05:31:34;10.20;;;9.20;;
26435;SDS011;15351;52.408;16.826;2022-12-07T05:34:02;10.60;;;9.45;;
26435;SDS011;15351;52.408;16.826;2022-12-07T05:36:29;12.33;;;10.18;;
26435;SDS011;15351;52.408;16.826;2022-12-07T05:38:57;12.18;;;9.70;;
26435;SDS011;15351;52.408;16.826;2022-12-07T05:41:25;11.50;;;9.55;;
26435;SDS011;15351;52.408;16.826;2022-12-07T05:44:09;12.85;;;10.00;;
26435;SDS011;15351;52.408;16.826;2022-12-07T05:46:36;12.30;;;10.63;;
26435;SDS011;15351;52.408;16.826;2022-12-07T05:49:02;13.30;;;11.00;;
26435;SDS011;15351;52.408;16.826;2022-12-07T05:51:29;11.75;;;9.75;;
26435;SDS011;15351;52.408;16.826;2022-12-07T05:53:55;11.43;;;9.20;;
26435;SDS011;15351;52.408;16.826;2022-12-07T05:56:21;11.93;;;8.88;;
26435;SDS011;15351;52.408;16.826;2022-12-07T05:58:48;10.38;;;8.63;;
26435;SDS011;15351;52.408;16.826;2022-12-07T06:01:34;10.58;;;9.15;;
26435;SDS011;15351;52.408;16.826;2022-12-07T06:04:00;11.10;;;9.80;;
26435;SDS011;15351;52.408;16.826;2022-12-07T06:06:27;12.82;;;9.95;;
26435;SDS011;15351;52.408;16.826;2022-12-07T06:08:53;11.90;;;9.45;;
26435;SDS011;15351;52.408;16.826;2022-12-07T06:11:20;11.60;;;9.53;;
26435;SDS011;15351;52.408;16.826;2022-12-07T06:14:06;10.43;;;8.85;;
26435;SDS011;15351;52.408;16.826;2022-12-07T06:16:34;11.80;;;8.90;;
26435;SDS011;15351;52.408;16.826;2022-12-07T06:19:01;10.75;;;8.90;;
26435;SDS011;15351;52.408;16.826;2022-12-07T06:21:28;10.43;;;9.20;;
26435;SDS011;15351;52.408;16.826;2022-12-07T06:23:54;11.60;;;9.20;;
26435;SDS011;15351;52.408;16.826;2022-12-07T06:26:21;12.23;;;8.83;;
26435;SDS011;15351;52.408;16.826;2022-12-07T06:28:48;10.45;;;8.50;;
26435;SDS011;15351;52.408;16.826;2022-12-07T06:31:16;10.48;;;8.13;;
26435;SDS011;15351;52.408;16.826;2022-12-07T06:33:43;9.05;;;7.72;;
26435;SDS011;15351;52.408;16.826;2022-12-07T06:36:10;11.53;;;9.23;;
26435;SDS011;15351;52.408;16.826;2022-12-07T06:38:37;11.93;;;9.55;;
26435;SDS011;15351;52.408;16.826;2022-12-07T06:41:04;11.12;;;8.50;;
26435;SDS011;15351;52.408;16.826;2022-12-07T06:43:30;8.28;;;6.92;;
26435;SDS011;15351;52.408;16.826;2022-12-07T06:45:57;8.95;;;7.00;;
26435;SDS011;15351;52.408;16.826;2022-12-07T06:48:28;7.50;;;6.45;;
26435;SDS011;15351;52.408;16.826;2022-12-07T06:50:54;7.58;;;6.78;;
26435;SDS011;15351;52.408;16.826;2022-12-07T06:53:22;8.70;;;7.20;;
26435;SDS011;15351;52.408;16.826;2022-12-07T06:55:48;7.95;;;6.83;;
26435;SDS011;15351;52.408;16.826;2022-12-07T06:58:15;9.40;;;7.28;;
26435;SDS011;15351;52.408;16.826;2022-12-07T07:00:43;8.68;;;6.67;;
26435;SDS011;15351;52.408;16.826;2022-12-07T07:03:11;8.20;;;6.40;;
26435;SDS011;15351;52.408;16.826;2022-12-07T07:05:38;9.07;;;6.73;;
26435;SDS011;15351;52.408;16.826;2022-12-07T07:08:07;10.53;;;8.13;;
26435;SDS011;15351;52.408;16.826;2022-12-07T07:10:35;9.88;;;7.90;;
26435;SDS011;15351;52.408;16.826;2022-12-07T07:13:03;10.00;;;7.20;;
26435;SDS011;15351;52.408;16.826;2022-12-07T07:15:30;8.08;;;6.47;;
26435;SDS011;15351;52.408;16.826;2022-12-07T07:18:00;8.15;;;6.45;;
26435;SDS011;15351;52.408;16.826;2022-12-07T07:20:29;7.57;;;6.20;;
26435;SDS011;15351;52.408;16.826;2022-12-07T07:22:58;8.07;;;6.70;;
26435;SDS011;15351;52.408;16.826;2022-12-07T07:25:24;7.25;;;5.87;;
26435;SDS011;15351;52.408;16.826;2022-12-07T07:27:50;7.15;;;5.75;;
26435;SDS011;15351;52.408;16.826;2022-12-07T07:30:17;7.08;;;5.30;;
26435;SDS011;15351;52.408;16.826;2022-12-07T07:32:43;6.80;;;5.00;;
26435;SDS011;15351;52.408;16.826;2022-12-07T07:35:09;6.90;;;5.03;;
26435;SDS011;15351;52.408;16.826;2022-12-07T07:37:36;6.97;;;5.12;;
26435;SDS011;15351;52.408;16.826;2022-12-07T07:40:02;7.28;;;5.30;;
26435;SDS011;15351;52.408;16.826;2022-12-07T07:42:31;7.43;;;4.93;;
26435;SDS011;15351;52.408;16.826;2022-12-07T07:45:01;5.50;;;4.70;;
26435;SDS011;15351;52.408;16.826;2022-12-07T07:47:29;6.92;;;5.67;;
26435;SDS011;15351;52.408;16.826;2022-12-07T07:49:55;7.62;;;5.10;;
26435;SDS011;15351;52.408;16.826;2022-12-07T07:52:22;6.80;;;4.97;;
26435;SDS011;15351;52.408;16.826;2022-12-07T07:54:57;7.20;;;5.10;;
26435;SDS011;15351;52.408;16.826;2022-12-07T08:01:04;6.97;;;5.75;;
26435;SDS011;15351;52.408;16.826;2022-12-07T08:03:34;8.18;;;6.10;;
26435;SDS011;15351;52.408;16.826;2022-12-07T08:06:01;7.12;;;5.67;;
26435;SDS011;15351;52.408;16.826;2022-12-07T08:08:29;7.72;;;5.75;;
26435;SDS011;15351;52.408;16.826;2022-12-07T08:10:57;8.25;;;6.10;;
26435;SDS011;15351;52.408;16.826;2022-12-07T08:13:26;7.65;;;6.22;;
26435;SDS011;15351;52.408;16.826;2022-12-07T08:15:55;8.85;;;7.50;;
26435;SDS011;15351;52.408;16.826;2022-12-07T08:18:21;10.93;;;8.20;;
26435;SDS011;15351;52.408;16.826;2022-12-07T08:20:58;11.08;;;8.20;;
26435;SDS011;15351;52.408;16.826;2022-12-07T08:23:30;12.00;;;8.65;;
26435;SDS011;15351;52.408;16.826;2022-12-07T08:26:04;12.53;;;8.90;;
26435;SDS011;15351;52.408;16.826;2022-12-07T08:28:34;13.00;;;9.78;;
26435;SDS011;15351;52.408;16.826;2022-12-07T08:31:03;14.35;;;11.10;;
26435;SDS011;15351;52.408;16.826;2022-12-07T08:33:34;17.15;;;11.33;;
26435;SDS011;15351;52.408;16.826;2022-12-07T08:36:02;16.07;;;12.23;;
26435;SDS011;15351;52.408;16.826;2022-12-07T08:38:31;21.03;;;13.90;;
26435;SDS011;15351;52.408;16.826;2022-12-07T08:40:59;16.45;;;11.70;;
26435;SDS011;15351;52.408;16.826;2022-12-07T08:43:26;14.60;;;10.95;;
26435;SDS011;15351;52.408;16.826;2022-12-07T08:49:29;14.00;;;10.32;;
26435;SDS011;15351;52.408;16.826;2022-12-07T08:51:22;15.88;;;10.60;;
26435;SDS011;15351;52.408;16.826;2022-12-07T08:53:52;14.47;;;9.83;;
26435;SDS011;15351;52.408;16.826;2022-12-07T08:56:22;11.08;;;9.70;;
26435;SDS011;15351;52.408;16.826;2022-12-07T08:58:48;14.30;;;11.12;;
26435;SDS011;15351;52.408;16.826;2022-12-07T09:01:16;15.65;;;10.35;;
26435;SDS011;15351;52.408;16.826;2022-12-07T09:03:43;13.15;;;9.55;;
26435;SDS011;15351;52.408;16.826;2022-12-07T09:06:09;11.70;;;8.90;;
26435;SDS011;15351;52.408;16.826;2022-12-07T09:08:37;13.27;;;8.83;;
26435;SDS011;15351;52.408;16.826;2022-12-07T09:11:09;12.40;;;9.78;;
26435;SDS011;15351;52.408;16.826;2022-12-07T09:13:36;13.90;;;11.53;;
26435;SDS011;15351;52.408;16.826;2022-12-07T09:16:03;15.25;;;11.75;;
26435;SDS011;15351;52.408;16.826;2022-12-07T09:18:34;16.57;;;11.88;;
26435;SDS011;15351;52.408;16.826;2022-12-07T09:21:00;15.53;;;11.77;;
26435;SDS011;15351;52.408;16.826;2022-12-07T09:23:27;15.08;;;12.00;;
26435;SDS011;15351;52.408;16.826;2022-12-07T09:25:54;16.17;;;13.05;;
26435;SDS011;15351;52.408;16.826;2022-12-07T09:28:27;17.98;;;13.00;;
26435;SDS011;15351;52.408;16.826;2022-12-07T09:30:53;17.60;;;12.82;;
26435;SDS011;15351;52.408;16.826;2022-12-07T09:33:20;16.82;;;12.35;;
26435;SDS011;15351;52.408;16.826;2022-12-07T09:35:49;16.65;;;12.63;;
26435;SDS011;15351;52.408;16.826;2022-12-07T09:38:19;15.55;;;13.00;;
26435;SDS011;15351;52.408;16.826;2022-12-07T09:40:47;16.05;;;13.38;;
26435;SDS011;15351;52.408;16.826;2022-12-07T09:43:19;18.73;;;12.90;;
26435;SDS011;15351;52.408;16.826;2022-12-07T09:45:51;18.65;;;12.85;;
26435;SDS011;15351;52.408;16.826;2022-12-07T09:48:23;17.65;;;12.43;;
26435;SDS011;15351;52.408;16.826;2022-12-07T09:51:03;15.00;;;12.05;;
26435;SDS011;15351;52.408;16.826;2022-12-07T09:53:47;17.62;;;13.38;;
26435;SDS011;15351;52.408;16.826;2022-12-07T09:56:15;19.60;;;13.00;;
26435;SDS011;15351;52.408;16.826;2022-12-07T09:58:44;17.05;;;12.53;;
26435;SDS011;15351;52.408;16.826;2022-12-07T10:01:16;16.82;;;12.30;;
26435;SDS011;15351;52.408;16.826;2022-12-07T10:03:53;17.77;;;12.05;;
26435;SDS011;15351;52.408;16.826;2022-12-07T10:06:23;15.38;;;12.43;;
26435;SDS011;15351;52.408;16.826;2022-12-07T10:08:50;16.40;;;12.75;;
26435;SDS011;15351;52.408;16.826;2022-12-07T10:11:17;16.90;;;11.97;;
26435;SDS011;15351;52.408;16.826;2022-12-07T10:13:44;17.70;;;12.07;;
26435;SDS011;15351;52.408;16.826;2022-12-07T10:16:31;16.00;;;12.25;;
26435;SDS011;15351;52.408;16.826;2022-12-07T10:19:18;17.00;;;12.27;;
26435;SDS011;15351;52.408;16.826;2022-12-07T10:24:43;18.75;;;13.45;;
26435;SDS011;15351;52.408;16.826;2022-12-07T10:29:54;17.32;;;13.13;;
26435;SDS011;15351;52.408;16.826;2022-12-07T10:37:53;17.95;;;13.30;;
26435;SDS011;15351;52.408;16.826;2022-12-07T10:40:28;19.05;;;13.10;;
26435;SDS011;15351;52.408;16.826;2022-12-07T10:48:48;16.03;;;11.80;;
26435;SDS011;15351;52.408;16.826;2022-12-07T10:51:27;16.25;;;13.28;;
26435;SDS011;15351;52.408;16.826;2022-12-07T10:54:18;18.35;;;13.50;;
26435;SDS011;15351;52.408;16.826;2022-12-07T10:59:52;17.98;;;13.45;;
26435;SDS011;15351;52.408;16.826;2022-12-07T11:05:02;18.53;;;13.37;;
26435;SDS011;15351;52.408;16.826;2022-12-07T11:16:05;20.53;;;14.73;;
26435;SDS011;15351;52.408;16.826;2022-12-07T11:30:23;18.32;;;13.43;;
26435;SDS011;15351;52.408;16.826;2022-12-07T11:33:03;18.62;;;13.43;;
26435;SDS011;15351;52.408;16.826;2022-12-07T11:38:54;20.57;;;15.15;;
26435;SDS011;15351;52.408;16.826;2022-12-07T11:41:30;20.33;;;15.30;;
26435;SDS011;15351;52.408;16.826;2022-12-07T11:44:08;18.92;;;13.88;;
26435;SDS011;15351;52.408;16.826;2022-12-07T11:47:20;19.07;;;13.55;;
26435;SDS011;15351;52.408;16.826;2022-12-07T11:49:56;18.48;;;13.03;;
26435;SDS011;15351;52.408;16.826;2022-12-07T11:52:43;17.98;;;13.48;;
26435;SDS011;15351;52.408;16.826;2022-12-07T11:55:29;21.42;;;13.10;;
26435;SDS011;15351;52.408;16.826;2022-12-07T12:03:50;21.00;;;13.10;;
26435;SDS011;15351;52.408;16.826;2022-12-07T12:06:20;17.25;;;13.90;;
26435;SDS011;15351;52.408;16.826;2022-12-07T12:11:32;16.77;;;12.73;;
26435;SDS011;15351;52.408;16.826;2022-12-07T12:20:31;14.38;;;11.00;;
26435;SDS011;15351;52.408;16.826;2022-12-07T12:23:17;14.18;;;11.30;;
26435;SDS011;15351;52.408;16.826;2022-12-07T12:26:04;15.40;;;12.43;;
26435;SDS011;15351;52.408;16.826;2022-12-07T12:28:37;15.05;;;11.43;;
26435;SDS011;15351;52.408;16.826;2022-12-07T12:34:01;15.53;;;10.88;;
26435;SDS011;15351;52.408;16.826;2022-12-07T12:36:49;15.33;;;10.80;;
26435;SDS011;15351;52.408;16.826;2022-12-07T12:39:16;15.05;;;10.72;;
26435;SDS011;15351;52.408;16.826;2022-12-07T12:41:55;16.37;;;10.68;;
26435;SDS011;15351;52.408;16.826;2022-12-07T12:50:20;14.68;;;11.12;;
26435;SDS011;15351;52.408;16.826;2022-12-07T12:53:02;15.00;;;10.80;;
26435;SDS011;15351;52.408;16.826;2022-12-07T12:58:40;15.28;;;9.95;;
26435;SDS011;15351;52.408;16.826;2022-12-07T13:01:32;13.13;;;9.28;;
26435;SDS011;15351;52.408;16.826;2022-12-07T13:04:23;10.80;;;8.55;;
26435;SDS011;15351;52.408;16.826;2022-12-07T13:15:55;11.53;;;8.50;;
26435;SDS011;15351;52.408;16.826;2022-12-07T13:18:35;10.17;;;7.53;;
26435;SDS011;15351;52.408;16.826;2022-12-07T13:31:52;9.68;;;6.97;;
26435;SDS011;15351;52.408;16.826;2022-12-07T13:34:34;8.98;;;7.03;;
26435;SDS011;15351;52.408;16.826;2022-12-07T13:37:09;13.00;;;7.90;;
26435;SDS011;15351;52.408;16.826;2022-12-07T13:39:46;11.03;;;7.00;;
26435;SDS011;15351;52.408;16.826;2022-12-07T13:42:24;8.73;;;6.62;;
26435;SDS011;15351;52.408;16.826;2022-12-07T13:44:57;8.90;;;6.50;;
26435;SDS011;15351;52.408;16.826;2022-12-07T13:47:32;9.28;;;6.72;;
26435;SDS011;15351;52.408;16.826;2022-12-07T13:50:15;8.50;;;6.50;;
26435;SDS011;15351;52.408;16.826;2022-12-07T13:52:54;8.60;;;7.17;;
26435;SDS011;15351;52.408;16.826;2022-12-07T13:55:28;8.05;;;6.55;;
26435;SDS011;15351;52.408;16.826;2022-12-07T13:57:56;8.27;;;6.47;;
26435;SDS011;15351;52.408;16.826;2022-12-07T14:00:27;8.55;;;6.20;;
26435;SDS011;15351;52.408;16.826;2022-12-07T14:03:00;7.60;;;5.80;;
26435;SDS011;15351;52.408;16.826;2022-12-07T14:05:32;8.13;;;6.20;;
26435;SDS011;15351;52.408;16.826;2022-12-07T14:08:05;8.65;;;6.12;;
26435;SDS011;15351;52.408;16.826;2022-12-07T14:10:34;7.75;;;6.40;;
26435;SDS011;15351;52.408;16.826;2022-12-07T14:18:59;6.55;;;5.15;;
26435;SDS011;15351;52.408;16.826;2022-12-07T14:21:33;7.33;;;5.92;;
26435;SDS011;15351;52.408;16.826;2022-12-07T14:24:16;7.20;;;5.58;;
26435;SDS011;15351;52.408;16.826;2022-12-07T14:26:49;7.92;;;6.05;;
26435;SDS011;15351;52.408;16.826;2022-12-07T14:29:30;8.00;;;5.75;;
26435;SDS011;15351;52.408;16.826;2022-12-07T14:32:25;6.85;;;5.72;;
26435;SDS011;15351;52.408;16.826;2022-12-07T14:35:19;7.00;;;5.80;;
26435;SDS011;15351;52.408;16.826;2022-12-07T14:38:10;8.48;;;6.28;;
26435;SDS011;15351;52.408;16.826;2022-12-07T14:40:49;8.78;;;6.78;;
26435;SDS011;15351;52.408;16.826;2022-12-07T14:46:48;11.45;;;8.58;;
26435;SDS011;15351;52.408;16.826;2022-12-07T14:55:58;7.12;;;4.87;;
26435;SDS011;15351;52.408;16.826;2022-12-07T14:58:41;5.25;;;4.30;;
26435;SDS011;15351;52.408;16.826;2022-12-07T15:01:24;5.72;;;4.65;;
26435;SDS011;15351;52.408;16.826;2022-12-07T15:04:16;6.33;;;5.05;;
26435;SDS011;15351;52.408;16.826;2022-12-07T15:06:54;6.95;;;5.03;;
26435;SDS011;15351;52.408;16.826;2022-12-07T15:09:23;6.20;;;4.60;;
26435;SDS011;15351;52.408;16.826;2022-12-07T15:11:50;5.62;;;4.55;;
26435;SDS011;15351;52.408;16.826;2022-12-07T15:14:16;6.47;;;5.15;;
26435;SDS011;15351;52.408;16.826;2022-12-07T15:16:45;7.53;;;5.47;;
26435;SDS011;15351;52.408;16.826;2022-12-07T15:19:16;6.97;;;5.25;;
26435;SDS011;15351;52.408;16.826;2022-12-07T15:21:55;8.95;;;6.05;;
26435;SDS011;15351;52.408;16.826;2022-12-07T15:24:25;10.20;;;8.18;;
26435;SDS011;15351;52.408;16.826;2022-12-07T15:26:54;17.67;;;12.23;;
26435;SDS011;15351;52.408;16.826;2022-12-07T15:29:21;16.25;;;11.00;;
26435;SDS011;15351;52.408;16.826;2022-12-07T15:31:48;16.12;;;10.45;;
26435;SDS011;15351;52.408;16.826;2022-12-07T15:34:16;13.70;;;9.68;;
26435;SDS011;15351;52.408;16.826;2022-12-07T15:36:43;11.33;;;8.73;;
26435;SDS011;15351;52.408;16.826;2022-12-07T15:39:10;10.90;;;8.48;;
26435;SDS011;15351;52.408;16.826;2022-12-07T15:41:38;13.05;;;8.43;;
26435;SDS011;15351;52.408;16.826;2022-12-07T15:44:12;13.35;;;8.28;;
26435;SDS011;15351;52.408;16.826;2022-12-07T15:46:58;11.70;;;7.75;;
26435;SDS011;15351;52.408;16.826;2022-12-07T15:49:29;13.32;;;8.88;;
26435;SDS011;15351;52.408;16.826;2022-12-07T15:51:57;15.58;;;12.75;;
26435;SDS011;15351;52.408;16.826;2022-12-07T15:54:30;20.20;;;15.98;;
26435;SDS011;15351;52.408;16.826;2022-12-07T15:57:01;16.75;;;11.05;;
26435;SDS011;15351;52.408;16.826;2022-12-07T15:59:29;26.17;;;17.30;;
26435;SDS011;15351;52.408;16.826;2022-12-07T16:01:58;19.60;;;12.47;;
26435;SDS011;15351;52.408;16.826;2022-12-07T16:04:27;17.45;;;12.50;;
26435;SDS011;15351;52.408;16.826;2022-12-07T16:06:55;20.33;;;14.97;;
26435;SDS011;15351;52.408;16.826;2022-12-07T16:09:24;21.02;;;14.28;;
26435;SDS011;15351;52.408;16.826;2022-12-07T16:11:56;21.35;;;14.43;;
26435;SDS011;15351;52.408;16.826;2022-12-07T16:33:21;22.80;;;16.27;;
26435;SDS011;15351;52.408;16.826;2022-12-07T16:35:50;26.35;;;17.27;;
26435;SDS011;15351;52.408;16.826;2022-12-07T16:38:18;22.65;;;14.13;;
26435;SDS011;15351;52.408;16.826;2022-12-07T16:40:46;17.75;;;11.88;;
26435;SDS011;15351;52.408;16.826;2022-12-07T16:43:15;18.45;;;11.68;;
26435;SDS011;15351;52.408;16.826;2022-12-07T16:45:43;20.10;;;11.88;;
26435;SDS011;15351;52.408;16.826;2022-12-07T16:48:17;20.57;;;11.85;;
26435;SDS011;15351;52.408;16.826;2022-12-07T16:50:42;20.02;;;12.25;;
26435;SDS011;15351;52.408;16.826;2022-12-07T16:53:10;21.27;;;13.13;;
26435;SDS011;15351;52.408;16.826;2022-12-07T16:55:40;19.70;;;12.78;;
26435;SDS011;15351;52.408;16.826;2022-12-07T16:58:10;22.67;;;13.07;;
26435;SDS011;15351;52.408;16.826;2022-12-07T17:00:40;22.15;;;13.68;;
26435;SDS011;15351;52.408;16.826;2022-12-07T17:03:09;25.32;;;14.93;;
26435;SDS011;15351;52.408;16.826;2022-12-07T17:05:38;23.83;;;16.00;;
26435;SDS011;15351;52.408;16.826;2022-12-07T17:08:08;22.67;;;15.78;;
26435;SDS011;15351;52.408;16.826;2022-12-07T17:10:40;24.00;;;15.38;;
26435;SDS011;15351;52.408;16.826;2022-12-07T17:13:07;22.93;;;14.68;;
26435;SDS011;15351;52.408;16.826;2022-12-07T17:15:38;21.87;;;13.83;;
26435;SDS011;15351;52.408;16.826;2022-12-07T17:18:06;25.27;;;16.27;;
26435;SDS011;15351;52.408;16.826;2022-12-07T17:20:35;22.73;;;16.27;;
26435;SDS011;15351;52.408;16.826;2022-12-07T17:23:03;22.65;;;16.12;;
26435;SDS011;15351;52.408;16.826;2022-12-07T17:25:31;20.23;;;14.25;;
26435;SDS011;15351;52.408;16.826;2022-12-07T17:27:57;19.73;;;13.80;;
26435;SDS011;15351;52.408;16.826;2022-12-07T17:30:25;18.23;;;12.90;;
26435;SDS011;15351;52.408;16.826;2022-12-07T17:32:54;16.67;;;11.73;;
26435;SDS011;15351;52.408;16.826;2022-12-07T17:35:22;18.73;;;14.55;;